Spencer, WI

3:52 AM CDT on July 24, 2014 (GMT -0500)
Marshfield Municipal (KMFI) Elev 1276 ft | 44.64 °N, 90.19 °W | Change Station

Current weather conditions updated 58 minutes ago

Clear
Clear
57 °F
Feels Like 57 °F
N
6
Wind Variable Wind from SE

Today is forecast to be nearly the same temperature as yesterday.

Today
High -- | Low -- °F
--% Chance of Precip.
Yesterday
High -- | Low -- °F
Precip. -- in
5:38 AM 8:36 PM
Waning Crescent, 6% visible
Pressure 30.18 in
Visibility 10.0 miles
Clouds Clear
Dew Point 54 °F
Humidity 89%
Rainfall 0.00 in
Snow Depth Not available.
UV 0 out of 12
Pollen 6.10 out of 12
Air Quality Not available.
Flu Activity Not available.
METAR KMFI 240754Z AUTO 13005KT 10SM CLR 14/12 A3018 RMK AO2 SLP219 T01390122

More Conditions Fewer Conditions

Pressure 30.18 in
Visibility 10.0 miles
Clouds Clear
Dew Point 54 °F
Humidity 89%
Rainfall 0.00 in
Snow Depth Not available.
UV 0 out of 12
Pollen 6.10 out of 12
Air Quality Not available.
Flu Activity Not available.
METAR KMFI 240754Z AUTO 13005KT 10SM CLR 14/12 A3018 RMK AO2 SLP219 T01390122

More Conditions Fewer Conditions

10-Day Weather Forecast

Almanac

Astronomy

Jul. 24, 2014 Rise Set
Actual Time 5:38 AM CDT 8:36 PM CDT
Civil Twilight 5:03 AM CDT 9:10 PM CDT
Nautical Twilight 4:19 AM CDT 9:54 PM CDT
Astronomical Twilight 3:27 AM CDT 10:46 PM CDT
Moon 3:47 AM CDT 6:50 PM CDT
Length of Visible Light 16h 06m
Length of Day
14h 57m
Tomorrow will be 2m 6s shorter.
Waning Crescent, 6% of the Moon is Illuminated
Today
Waning Crescent
Jul 26
New
Aug 3
First Quarter
Aug 10
Full
Aug 17
Last Quarter

Today's Extremes

State Highs State Lows

Community

WunderPhotos

Upload Photos

1,736,950 photos uploaded!

Nearby

Snow Depth

Station Depth Elevation
No new snow has been reported.

Earthquake Activity

City Distance Mag. Time & Date
No recent earthquake activity has been reported nearby.
Minimum magnitude displayed is 2.5.

Coastal Water Temperatures

Place Temperature
No Stations Reporting

Nearby Weather Stations

Station Location Temp. Dew Point Humidity Wind Precip. Elev Updated Type
WIDOT Abbotsford - STH 29 3 mi E of Abbo, Abbotsford, WI 56 °F 54 °F 93% NE  at  0 mph 0.00 in / hr 1400 ft 1:52 AM CDT MADIS
WIDOT Pittsville - STH 13 @ STH 80, Pittsville, WI 57 °F 56 °F 96% ENE  at  2 mph 0.00 in / hr 1040 ft 2:18 AM CDT MADIS

Show More Stations Show Fewer Stations